sensor_id;sensor_type;location;lat;lon;timestamp;P1;durP1;ratioP1;P2;durP2;ratioP2
42066;SDS011;27734;47.028;28.820;2022-09-24T00:01:13;14.90;;;6.37;;
42066;SDS011;27734;47.028;28.820;2022-09-24T00:03:49;15.27;;;6.73;;
42066;SDS011;27734;47.028;28.820;2022-09-24T00:06:22;13.68;;;6.45;;
42066;SDS011;27734;47.028;28.820;2022-09-24T00:08:54;12.50;;;6.43;;
42066;SDS011;27734;47.028;28.820;2022-09-24T00:11:26;15.23;;;6.43;;
42066;SDS011;27734;47.028;28.820;2022-09-24T00:13:59;13.67;;;6.53;;
42066;SDS011;27734;47.028;28.820;2022-09-24T00:16:30;13.50;;;6.57;;
42066;SDS011;27734;47.028;28.820;2022-09-24T00:19:02;16.23;;;7.20;;
42066;SDS011;27734;47.028;28.820;2022-09-24T00:21:34;15.23;;;6.63;;
42066;SDS011;27734;47.028;28.820;2022-09-24T00:24:06;13.23;;;7.03;;
42066;SDS011;27734;47.028;28.820;2022-09-24T00:27:02;13.90;;;6.47;;
42066;SDS011;27734;47.028;28.820;2022-09-24T00:29:34;17.07;;;7.20;;
42066;SDS011;27734;47.028;28.820;2022-09-24T00:32:05;17.17;;;7.47;;
42066;SDS011;27734;47.028;28.820;2022-09-24T00:34:37;14.77;;;6.93;;
42066;SDS011;27734;47.028;28.820;2022-09-24T00:37:08;14.73;;;7.67;;
42066;SDS011;27734;47.028;28.820;2022-09-24T00:39:39;15.87;;;7.90;;
42066;SDS011;27734;47.028;28.820;2022-09-24T00:42:11;15.57;;;7.57;;
42066;SDS011;27734;47.028;28.820;2022-09-24T00:44:49;15.73;;;7.73;;
42066;SDS011;27734;47.028;28.820;2022-09-24T00:47:26;15.30;;;7.70;;
42066;SDS011;27734;47.028;28.820;2022-09-24T00:50:06;16.83;;;7.67;;
42066;SDS011;27734;47.028;28.820;2022-09-24T00:52:43;14.67;;;7.03;;
42066;SDS011;27734;47.028;28.820;2022-09-24T00:55:18;16.90;;;7.77;;
42066;SDS011;27734;47.028;28.820;2022-09-24T00:57:53;18.42;;;7.62;;
42066;SDS011;27734;47.028;28.820;2022-09-24T01:00:26;16.20;;;7.17;;
42066;SDS011;27734;47.028;28.820;2022-09-24T01:02:59;17.20;;;7.85;;
42066;SDS011;27734;47.028;28.820;2022-09-24T01:05:33;15.60;;;7.30;;
42066;SDS011;27734;47.028;28.820;2022-09-24T01:08:08;16.33;;;7.63;;
42066;SDS011;27734;47.028;28.820;2022-09-24T01:10:46;16.07;;;7.10;;
42066;SDS011;27734;47.028;28.820;2022-09-24T01:13:32;14.73;;;6.93;;
42066;SDS011;27734;47.028;28.820;2022-09-24T01:16:18;15.17;;;7.40;;
42066;SDS011;27734;47.028;28.820;2022-09-24T01:18:59;17.33;;;7.87;;
42066;SDS011;27734;47.028;28.820;2022-09-24T01:21:37;16.73;;;7.63;;
42066;SDS011;27734;47.028;28.820;2022-09-24T01:24:20;18.30;;;8.93;;
42066;SDS011;27734;47.028;28.820;2022-09-24T01:27:06;19.53;;;9.17;;
42066;SDS011;27734;47.028;28.820;2022-09-24T01:29:46;16.87;;;8.17;;
42066;SDS011;27734;47.028;28.820;2022-09-24T01:32:27;15.83;;;7.37;;
42066;SDS011;27734;47.028;28.820;2022-09-24T01:35:06;16.45;;;7.70;;
42066;SDS011;27734;47.028;28.820;2022-09-24T01:37:43;15.67;;;7.23;;
42066;SDS011;27734;47.028;28.820;2022-09-24T01:40:17;18.03;;;7.17;;
42066;SDS011;27734;47.028;28.820;2022-09-24T01:42:52;16.43;;;7.53;;
42066;SDS011;27734;47.028;28.820;2022-09-24T01:45:26;15.17;;;7.60;;
42066;SDS011;27734;47.028;28.820;2022-09-24T01:47:59;17.80;;;7.57;;
42066;SDS011;27734;47.028;28.820;2022-09-24T01:50:34;16.05;;;7.37;;
42066;SDS011;27734;47.028;28.820;2022-09-24T01:53:11;16.47;;;7.13;;
42066;SDS011;27734;47.028;28.820;2022-09-24T01:55:48;15.57;;;7.23;;
42066;SDS011;27734;47.028;28.820;2022-09-24T01:58:26;16.27;;;7.37;;
42066;SDS011;27734;47.028;28.820;2022-09-24T02:01:03;14.87;;;6.77;;
42066;SDS011;27734;47.028;28.820;2022-09-24T02:03:40;16.43;;;7.00;;
42066;SDS011;27734;47.028;28.820;2022-09-24T02:06:15;15.83;;;6.93;;
42066;SDS011;27734;47.028;28.820;2022-09-24T02:08:54;16.13;;;6.60;;
42066;SDS011;27734;47.028;28.820;2022-09-24T02:11:27;16.20;;;7.47;;
42066;SDS011;27734;47.028;28.820;2022-09-24T02:16:35;15.60;;;7.40;;
42066;SDS011;27734;47.028;28.820;2022-09-24T02:19:14;17.07;;;7.70;;
42066;SDS011;27734;47.028;28.820;2022-09-24T02:21:47;14.80;;;7.30;;
42066;SDS011;27734;47.028;28.820;2022-09-24T02:24:21;15.53;;;6.83;;
42066;SDS011;27734;47.028;28.820;2022-09-24T02:26:58;15.17;;;7.17;;
42066;SDS011;27734;47.028;28.820;2022-09-24T02:29:30;16.30;;;7.20;;
42066;SDS011;27734;47.028;28.820;2022-09-24T02:32:01;16.37;;;7.70;;
42066;SDS011;27734;47.028;28.820;2022-09-24T02:34:34;16.20;;;7.83;;
42066;SDS011;27734;47.028;28.820;2022-09-24T02:37:10;15.00;;;6.97;;
42066;SDS011;27734;47.028;28.820;2022-09-24T02:39:42;15.80;;;7.50;;
42066;SDS011;27734;47.028;28.820;2022-09-24T02:42:15;19.45;;;7.58;;
42066;SDS011;27734;47.028;28.820;2022-09-24T02:44:49;17.10;;;7.55;;
42066;SDS011;27734;47.028;28.820;2022-09-24T02:47:24;16.03;;;7.63;;
42066;SDS011;27734;47.028;28.820;2022-09-24T02:49:57;16.50;;;7.63;;
42066;SDS011;27734;47.028;28.820;2022-09-24T02:52:28;16.73;;;7.80;;
42066;SDS011;27734;47.028;28.820;2022-09-24T02:55:00;16.23;;;7.30;;
42066;SDS011;27734;47.028;28.820;2022-09-24T02:57:31;14.90;;;6.97;;
42066;SDS011;27734;47.028;28.820;2022-09-24T03:00:03;18.17;;;8.03;;
42066;SDS011;27734;47.028;28.820;2022-09-24T03:02:35;15.80;;;7.33;;
42066;SDS011;27734;47.028;28.820;2022-09-24T03:05:07;15.23;;;8.00;;
42066;SDS011;27734;47.028;28.820;2022-09-24T03:07:39;16.93;;;7.70;;
42066;SDS011;27734;47.028;28.820;2022-09-24T03:10:10;17.33;;;7.63;;
42066;SDS011;27734;47.028;28.820;2022-09-24T03:12:42;17.43;;;7.57;;
42066;SDS011;27734;47.028;28.820;2022-09-24T03:15:13;17.43;;;7.83;;
42066;SDS011;27734;47.028;28.820;2022-09-24T03:17:45;16.93;;;8.03;;
42066;SDS011;27734;47.028;28.820;2022-09-24T03:20:16;21.13;;;8.87;;
42066;SDS011;27734;47.028;28.820;2022-09-24T03:22:50;20.27;;;9.87;;
42066;SDS011;27734;47.028;28.820;2022-09-24T03:25:21;19.05;;;9.95;;
42066;SDS011;27734;47.028;28.820;2022-09-24T03:27:53;20.10;;;10.63;;
42066;SDS011;27734;47.028;28.820;2022-09-24T03:30:25;22.40;;;11.53;;
42066;SDS011;27734;47.028;28.820;2022-09-24T03:33:14;21.75;;;10.90;;
42066;SDS011;27734;47.028;28.820;2022-09-24T03:35:45;21.77;;;11.10;;
42066;SDS011;27734;47.028;28.820;2022-09-24T03:38:16;22.83;;;12.13;;
42066;SDS011;27734;47.028;28.820;2022-09-24T03:40:47;20.60;;;10.40;;
42066;SDS011;27734;47.028;28.820;2022-09-24T03:43:18;20.60;;;11.10;;
42066;SDS011;27734;47.028;28.820;2022-09-24T03:45:50;21.43;;;11.30;;
42066;SDS011;27734;47.028;28.820;2022-09-24T03:48:22;22.37;;;12.00;;
42066;SDS011;27734;47.028;28.820;2022-09-24T03:50:55;21.80;;;12.10;;
42066;SDS011;27734;47.028;28.820;2022-09-24T03:53:31;23.43;;;13.03;;
42066;SDS011;27734;47.028;28.820;2022-09-24T03:56:04;25.03;;;13.40;;
42066;SDS011;27734;47.028;28.820;2022-09-24T03:58:36;22.82;;;11.63;;
42066;SDS011;27734;47.028;28.820;2022-09-24T04:01:09;20.67;;;10.30;;
42066;SDS011;27734;47.028;28.820;2022-09-24T04:03:41;23.60;;;11.33;;
42066;SDS011;27734;47.028;28.820;2022-09-24T04:06:12;19.97;;;10.43;;
42066;SDS011;27734;47.028;28.820;2022-09-24T04:08:43;22.40;;;9.67;;
42066;SDS011;27734;47.028;28.820;2022-09-24T04:11:15;18.97;;;9.40;;
42066;SDS011;27734;47.028;28.820;2022-09-24T04:13:46;19.40;;;9.53;;
42066;SDS011;27734;47.028;28.820;2022-09-24T04:16:17;20.07;;;9.77;;
42066;SDS011;27734;47.028;28.820;2022-09-24T04:18:48;19.40;;;9.83;;
42066;SDS011;27734;47.028;28.820;2022-09-24T04:21:21;21.43;;;9.70;;
42066;SDS011;27734;47.028;28.820;2022-09-24T04:23:52;20.43;;;9.50;;
42066;SDS011;27734;47.028;28.820;2022-09-24T04:26:23;15.90;;;8.10;;
42066;SDS011;27734;47.028;28.820;2022-09-24T04:28:54;18.70;;;8.97;;
42066;SDS011;27734;47.028;28.820;2022-09-24T04:31:26;20.77;;;8.43;;
42066;SDS011;27734;47.028;28.820;2022-09-24T04:34:00;19.13;;;8.67;;
42066;SDS011;27734;47.028;28.820;2022-09-24T04:36:31;18.03;;;8.60;;
42066;SDS011;27734;47.028;28.820;2022-09-24T04:39:02;20.97;;;8.23;;
42066;SDS011;27734;47.028;28.820;2022-09-24T04:41:33;17.87;;;8.23;;
42066;SDS011;27734;47.028;28.820;2022-09-24T04:44:07;18.27;;;8.47;;
42066;SDS011;27734;47.028;28.820;2022-09-24T04:46:40;16.82;;;7.95;;
42066;SDS011;27734;47.028;28.820;2022-09-24T04:49:11;16.07;;;7.97;;
42066;SDS011;27734;47.028;28.820;2022-09-24T04:51:43;21.47;;;8.40;;
42066;SDS011;27734;47.028;28.820;2022-09-24T04:54:14;19.77;;;7.93;;
42066;SDS011;27734;47.028;28.820;2022-09-24T04:56:45;20.07;;;7.77;;
42066;SDS011;27734;47.028;28.820;2022-09-24T04:59:16;17.93;;;7.67;;
42066;SDS011;27734;47.028;28.820;2022-09-24T05:01:47;18.95;;;7.75;;
42066;SDS011;27734;47.028;28.820;2022-09-24T05:04:22;19.50;;;8.23;;
42066;SDS011;27734;47.028;28.820;2022-09-24T05:06:53;17.70;;;7.60;;
42066;SDS011;27734;47.028;28.820;2022-09-24T05:09:24;15.57;;;7.70;;
42066;SDS011;27734;47.028;28.820;2022-09-24T05:11:57;17.10;;;7.67;;
42066;SDS011;27734;47.028;28.820;2022-09-24T05:14:28;17.27;;;7.80;;
42066;SDS011;27734;47.028;28.820;2022-09-24T05:17:00;16.57;;;7.73;;
42066;SDS011;27734;47.028;28.820;2022-09-24T05:19:31;18.23;;;7.17;;
42066;SDS011;27734;47.028;28.820;2022-09-24T05:22:02;16.50;;;7.63;;
42066;SDS011;27734;47.028;28.820;2022-09-24T05:24:34;16.80;;;7.93;;
42066;SDS011;27734;47.028;28.820;2022-09-24T05:27:05;17.37;;;7.80;;
42066;SDS011;27734;47.028;28.820;2022-09-24T05:29:40;15.57;;;7.57;;
42066;SDS011;27734;47.028;28.820;2022-09-24T05:32:12;19.20;;;7.47;;
42066;SDS011;27734;47.028;28.820;2022-09-24T05:34:45;16.93;;;6.92;;
42066;SDS011;27734;47.028;28.820;2022-09-24T05:37:18;18.17;;;7.60;;
42066;SDS011;27734;47.028;28.820;2022-09-24T05:39:49;17.63;;;7.77;;
42066;SDS011;27734;47.028;28.820;2022-09-24T05:42:21;15.00;;;7.80;;
42066;SDS011;27734;47.028;28.820;2022-09-24T05:44:52;15.83;;;7.80;;
42066;SDS011;27734;47.028;28.820;2022-09-24T05:47:23;16.10;;;7.23;;
42066;SDS011;27734;47.028;28.820;2022-09-24T05:49:54;14.30;;;7.00;;
42066;SDS011;27734;47.028;28.820;2022-09-24T05:52:26;16.73;;;7.17;;
42066;SDS011;27734;47.028;28.820;2022-09-24T05:54:57;16.53;;;7.30;;
42066;SDS011;27734;47.028;28.820;2022-09-24T05:57:28;14.97;;;7.33;;
42066;SDS011;27734;47.028;28.820;2022-09-24T05:59:59;15.47;;;6.87;;
42066;SDS011;27734;47.028;28.820;2022-09-24T06:02:40;16.47;;;7.50;;
42066;SDS011;27734;47.028;28.820;2022-09-24T06:05:11;16.23;;;6.83;;
42066;SDS011;27734;47.028;28.820;2022-09-24T06:07:43;14.57;;;7.23;;
42066;SDS011;27734;47.028;28.820;2022-09-24T06:10:14;13.57;;;7.10;;
42066;SDS011;27734;47.028;28.820;2022-09-24T06:12:45;13.87;;;6.60;;
42066;SDS011;27734;47.028;28.820;2022-09-24T06:15:17;15.90;;;7.20;;
42066;SDS011;27734;47.028;28.820;2022-09-24T06:17:49;15.33;;;6.30;;
42066;SDS011;27734;47.028;28.820;2022-09-24T06:20:23;12.98;;;6.53;;
42066;SDS011;27734;47.028;28.820;2022-09-24T06:22:55;13.13;;;6.80;;
42066;SDS011;27734;47.028;28.820;2022-09-24T06:25:26;14.13;;;6.47;;
42066;SDS011;27734;47.028;28.820;2022-09-24T06:28:04;12.77;;;6.00;;
42066;SDS011;27734;47.028;28.820;2022-09-24T06:30:37;15.83;;;5.97;;
42066;SDS011;27734;47.028;28.820;2022-09-24T06:33:09;12.40;;;5.90;;
42066;SDS011;27734;47.028;28.820;2022-09-24T06:35:41;11.47;;;5.80;;
42066;SDS011;27734;47.028;28.820;2022-09-24T06:38:14;13.77;;;5.73;;
42066;SDS011;27734;47.028;28.820;2022-09-24T06:40:46;14.43;;;5.77;;
42066;SDS011;27734;47.028;28.820;2022-09-24T06:43:17;13.30;;;5.67;;
42066;SDS011;27734;47.028;28.820;2022-09-24T06:45:48;16.37;;;5.13;;
42066;SDS011;27734;47.028;28.820;2022-09-24T06:48:22;12.97;;;5.47;;
42066;SDS011;27734;47.028;28.820;2022-09-24T06:50:54;10.50;;;5.13;;
42066;SDS011;27734;47.028;28.820;2022-09-24T06:53:26;11.20;;;5.10;;
42066;SDS011;27734;47.028;28.820;2022-09-24T06:55:58;11.63;;;5.20;;
42066;SDS011;27734;47.028;28.820;2022-09-24T06:58:30;11.17;;;5.10;;
42066;SDS011;27734;47.028;28.820;2022-09-24T07:01:02;9.63;;;5.00;;
42066;SDS011;27734;47.028;28.820;2022-09-24T07:03:34;9.00;;;4.70;;
42066;SDS011;27734;47.028;28.820;2022-09-24T07:06:06;7.80;;;4.30;;
42066;SDS011;27734;47.028;28.820;2022-09-24T07:08:37;7.30;;;4.70;;
42066;SDS011;27734;47.028;28.820;2022-09-24T07:11:09;11.97;;;4.57;;
42066;SDS011;27734;47.028;28.820;2022-09-24T07:16:12;8.47;;;4.57;;
42066;SDS011;27734;47.028;28.820;2022-09-24T07:18:43;10.30;;;4.63;;
42066;SDS011;27734;47.028;28.820;2022-09-24T07:21:15;9.33;;;4.67;;
42066;SDS011;27734;47.028;28.820;2022-09-24T07:23:46;8.77;;;4.80;;
42066;SDS011;27734;47.028;28.820;2022-09-24T07:26:17;10.40;;;4.73;;
42066;SDS011;27734;47.028;28.820;2022-09-24T07:28:48;8.90;;;4.80;;
42066;SDS011;27734;47.028;28.820;2022-09-24T07:31:19;8.20;;;4.67;;
42066;SDS011;27734;47.028;28.820;2022-09-24T07:33:51;7.53;;;4.47;;
42066;SDS011;27734;47.028;28.820;2022-09-24T07:36:22;11.20;;;4.63;;
42066;SDS011;27734;47.028;28.820;2022-09-24T07:38:53;8.07;;;4.67;;
42066;SDS011;27734;47.028;28.820;2022-09-24T07:41:25;9.80;;;4.40;;
42066;SDS011;27734;47.028;28.820;2022-09-24T07:43:57;9.27;;;4.43;;
42066;SDS011;27734;47.028;28.820;2022-09-24T07:46:29;7.97;;;4.30;;
42066;SDS011;27734;47.028;28.820;2022-09-24T07:49:34;7.93;;;4.50;;
42066;SDS011;27734;47.028;28.820;2022-09-24T07:52:57;7.40;;;3.97;;
42066;SDS011;27734;47.028;28.820;2022-09-24T07:55:29;8.30;;;4.20;;
42066;SDS011;27734;47.028;28.820;2022-09-24T07:58:07;6.63;;;4.13;;
42066;SDS011;27734;47.028;28.820;2022-09-24T08:00:40;7.87;;;4.77;;
42066;SDS011;27734;47.028;28.820;2022-09-24T08:03:12;7.47;;;4.17;;
42066;SDS011;27734;47.028;28.820;2022-09-24T08:05:43;7.77;;;3.87;;
42066;SDS011;27734;47.028;28.820;2022-09-24T08:08:15;7.13;;;4.17;;
42066;SDS011;27734;47.028;28.820;2022-09-24T08:10:47;8.13;;;3.80;;
42066;SDS011;27734;47.028;28.820;2022-09-24T08:13:18;5.30;;;3.60;;
42066;SDS011;27734;47.028;28.820;2022-09-24T08:15:55;7.13;;;3.77;;
42066;SDS011;27734;47.028;28.820;2022-09-24T08:18:28;7.23;;;3.67;;
42066;SDS011;27734;47.028;28.820;2022-09-24T08:21:03;5.03;;;3.40;;
42066;SDS011;27734;47.028;28.820;2022-09-24T08:23:38;7.73;;;3.50;;
42066;SDS011;27734;47.028;28.820;2022-09-24T08:26:11;5.10;;;3.37;;
42066;SDS011;27734;47.028;28.820;2022-09-24T08:28:43;7.23;;;3.30;;
42066;SDS011;27734;47.028;28.820;2022-09-24T08:31:18;7.57;;;3.43;;
42066;SDS011;27734;47.028;28.820;2022-09-24T08:33:50;9.03;;;3.77;;
42066;SDS011;27734;47.028;28.820;2022-09-24T08:36:21;8.73;;;3.20;;
42066;SDS011;27734;47.028;28.820;2022-09-24T08:38:53;6.60;;;3.33;;
42066;SDS011;27734;47.028;28.820;2022-09-24T08:41:31;7.80;;;3.60;;
42066;SDS011;27734;47.028;28.820;2022-09-24T08:44:13;5.27;;;3.13;;
42066;SDS011;27734;47.028;28.820;2022-09-24T08:47:11;6.20;;;3.50;;
42066;SDS011;27734;47.028;28.820;2022-09-24T08:49:53;5.40;;;3.33;;
42066;SDS011;27734;47.028;28.820;2022-09-24T08:52:33;4.77;;;3.10;;
42066;SDS011;27734;47.028;28.820;2022-09-24T08:55:11;5.60;;;3.37;;
42066;SDS011;27734;47.028;28.820;2022-09-24T08:57:53;5.47;;;3.10;;
42066;SDS011;27734;47.028;28.820;2022-09-24T09:00:28;6.77;;;3.20;;
42066;SDS011;27734;47.028;28.820;2022-09-24T09:03:05;5.53;;;3.20;;
42066;SDS011;27734;47.028;28.820;2022-09-24T09:05:48;6.43;;;3.20;;
42066;SDS011;27734;47.028;28.820;2022-09-24T09:08:27;7.00;;;3.20;;
42066;SDS011;27734;47.028;28.820;2022-09-24T09:11:06;7.20;;;3.20;;
42066;SDS011;27734;47.028;28.820;2022-09-24T09:13:42;4.75;;;3.00;;
42066;SDS011;27734;47.028;28.820;2022-09-24T09:16:22;8.07;;;3.30;;
42066;SDS011;27734;47.028;28.820;2022-09-24T09:18:57;4.97;;;3.10;;
42066;SDS011;27734;47.028;28.820;2022-09-24T09:21:36;4.30;;;2.90;;
42066;SDS011;27734;47.028;28.820;2022-09-24T09:24:13;2.93;;;2.60;;
42066;SDS011;27734;47.028;28.820;2022-09-24T09:26:49;8.57;;;3.00;;
42066;SDS011;27734;47.028;28.820;2022-09-24T09:29:23;4.43;;;2.97;;
42066;SDS011;27734;47.028;28.820;2022-09-24T09:32:00;6.43;;;3.00;;
42066;SDS011;27734;47.028;28.820;2022-09-24T09:34:48;3.80;;;2.90;;
42066;SDS011;27734;47.028;28.820;2022-09-24T09:37:28;5.63;;;2.53;;
42066;SDS011;27734;47.028;28.820;2022-09-24T09:40:11;4.03;;;2.67;;
42066;SDS011;27734;47.028;28.820;2022-09-24T09:42:59;5.30;;;2.80;;
42066;SDS011;27734;47.028;28.820;2022-09-24T09:45:32;6.40;;;2.63;;
42066;SDS011;27734;47.028;28.820;2022-09-24T09:48:10;2.97;;;2.40;;
42066;SDS011;27734;47.028;28.820;2022-09-24T09:50:44;5.20;;;2.70;;
42066;SDS011;27734;47.028;28.820;2022-09-24T09:53:21;4.67;;;2.37;;
42066;SDS011;27734;47.028;28.820;2022-09-24T09:55:55;6.60;;;2.70;;
42066;SDS011;27734;47.028;28.820;2022-09-24T09:58:29;4.73;;;2.70;;
42066;SDS011;27734;47.028;28.820;2022-09-24T10:01:06;4.30;;;2.70;;
42066;SDS011;27734;47.028;28.820;2022-09-24T10:03:46;3.67;;;2.67;;
42066;SDS011;27734;47.028;28.820;2022-09-24T10:06:23;7.77;;;2.50;;
42066;SDS011;27734;47.028;28.820;2022-09-24T10:09:06;4.30;;;2.70;;
42066;SDS011;27734;47.028;28.820;2022-09-24T10:11:40;4.40;;;2.90;;
42066;SDS011;27734;47.028;28.820;2022-09-24T10:14:13;3.07;;;2.37;;
42066;SDS011;27734;47.028;28.820;2022-09-24T10:16:49;7.17;;;2.67;;
42066;SDS011;27734;47.028;28.820;2022-09-24T10:19:23;13.27;;;4.60;;
42066;SDS011;27734;47.028;28.820;2022-09-24T10:21:56;4.12;;;2.83;;
42066;SDS011;27734;47.028;28.820;2022-09-24T10:24:35;5.47;;;2.73;;
42066;SDS011;27734;47.028;28.820;2022-09-24T10:27:11;6.93;;;3.07;;
42066;SDS011;27734;47.028;28.820;2022-09-24T10:29:50;9.10;;;3.00;;
42066;SDS011;27734;47.028;28.820;2022-09-24T10:32:40;4.60;;;3.00;;
42066;SDS011;27734;47.028;28.820;2022-09-24T10:35:22;5.03;;;2.90;;
42066;SDS011;27734;47.028;28.820;2022-09-24T10:37:57;4.60;;;2.80;;
42066;SDS011;27734;47.028;28.820;2022-09-24T10:40:36;7.00;;;3.20;;
42066;SDS011;27734;47.028;28.820;2022-09-24T10:43:14;5.07;;;3.00;;
42066;SDS011;27734;47.028;28.820;2022-09-24T10:48:50;5.63;;;2.90;;
42066;SDS011;27734;47.028;28.820;2022-09-24T10:51:30;4.93;;;2.83;;
42066;SDS011;27734;47.028;28.820;2022-09-24T10:54:13;4.40;;;2.70;;
42066;SDS011;27734;47.028;28.820;2022-09-24T10:57:02;7.77;;;3.00;;
42066;SDS011;27734;47.028;28.820;2022-09-24T10:59:44;6.10;;;3.00;;
42066;SDS011;27734;47.028;28.820;2022-09-24T11:05:26;10.40;;;2.90;;
42066;SDS011;27734;47.028;28.820;2022-09-24T11:11:08;4.73;;;2.77;;
42066;SDS011;27734;47.028;28.820;2022-09-24T11:13:51;4.03;;;2.80;;
42066;SDS011;27734;47.028;28.820;2022-09-24T11:16:37;4.67;;;3.10;;
42066;SDS011;27734;47.028;28.820;2022-09-24T11:19:29;4.37;;;2.70;;
42066;SDS011;27734;47.028;28.820;2022-09-24T11:22:16;5.93;;;3.33;;
42066;SDS011;27734;47.028;28.820;2022-09-24T11:27:50;2.92;;;2.40;;
42066;SDS011;27734;47.028;28.820;2022-09-24T11:30:33;2.83;;;2.23;;
42066;SDS011;27734;47.028;28.820;2022-09-24T11:33:20;2.27;;;2.08;;
42066;SDS011;27734;47.028;28.820;2022-09-24T11:36:07;2.60;;;2.10;;
42066;SDS011;27734;47.028;28.820;2022-09-24T11:39:02;4.20;;;2.30;;
42066;SDS011;27734;47.028;28.820;2022-09-24T11:41:46;3.50;;;2.33;;
42066;SDS011;27734;47.028;28.820;2022-09-24T11:44:30;3.17;;;2.27;;
42066;SDS011;27734;47.028;28.820;2022-09-24T11:47:24;5.95;;;2.70;;
42066;SDS011;27734;47.028;28.820;2022-09-24T11:50:11;3.37;;;2.50;;
42066;SDS011;27734;47.028;28.820;2022-09-24T11:52:49;4.20;;;2.60;;
42066;SDS011;27734;47.028;28.820;2022-09-24T11:55:28;5.93;;;2.60;;
42066;SDS011;27734;47.028;28.820;2022-09-24T11:58:08;3.73;;;2.30;;
42066;SDS011;27734;47.028;28.820;2022-09-24T12:00:45;4.40;;;2.90;;
42066;SDS011;27734;47.028;28.820;2022-09-24T12:03:22;4.90;;;2.60;;
42066;SDS011;27734;47.028;28.820;2022-09-24T12:06:04;6.90;;;2.80;;
42066;SDS011;27734;47.028;28.820;2022-09-24T12:08:40;5.33;;;2.70;;
42066;SDS011;27734;47.028;28.820;2022-09-24T12:11:17;3.17;;;2.70;;
42066;SDS011;27734;47.028;28.820;2022-09-24T12:13:55;3.47;;;2.73;;
42066;SDS011;27734;47.028;28.820;2022-09-24T12:16:34;2.90;;;2.50;;
42066;SDS011;27734;47.028;28.820;2022-09-24T12:19:09;2.80;;;2.43;;
42066;SDS011;27734;47.028;28.820;2022-09-24T12:21:48;6.43;;;2.70;;
42066;SDS011;27734;47.028;28.820;2022-09-24T12:24:22;6.90;;;2.90;;
42066;SDS011;27734;47.028;28.820;2022-09-24T12:26:59;6.90;;;2.80;;
42066;SDS011;27734;47.028;28.820;2022-09-24T12:29:39;3.77;;;2.80;;
42066;SDS011;27734;47.028;28.820;2022-09-24T12:32:37;4.13;;;2.93;;
42066;SDS011;27734;47.028;28.820;2022-09-24T12:35:28;3.77;;;2.73;;
42066;SDS011;27734;47.028;28.820;2022-09-24T12:38:06;6.63;;;2.70;;
42066;SDS011;27734;47.028;28.820;2022-09-24T12:43:58;3.13;;;2.60;;
42066;SDS011;27734;47.028;28.820;2022-09-24T12:46:38;6.93;;;2.93;;
42066;SDS011;27734;47.028;28.820;2022-09-24T12:49:17;4.15;;;2.70;;
42066;SDS011;27734;47.028;28.820;2022-09-24T12:51:58;3.47;;;2.70;;
42066;SDS011;27734;47.028;28.820;2022-09-24T12:54:32;5.30;;;3.50;;
42066;SDS011;27734;47.028;28.820;2022-09-24T12:57:06;6.12;;;2.90;;
42066;SDS011;27734;47.028;28.820;2022-09-24T12:59:48;5.30;;;3.50;;
42066;SDS011;27734;47.028;28.820;2022-09-24T13:02:22;3.23;;;2.77;;
42066;SDS011;27734;47.028;28.820;2022-09-24T13:05:14;4.80;;;2.77;;
42066;SDS011;27734;47.028;28.820;2022-09-24T13:07:57;4.30;;;2.60;;
42066;SDS011;27734;47.028;28.820;2022-09-24T13:10:30;3.60;;;2.45;;
42066;SDS011;27734;47.028;28.820;2022-09-24T13:13:14;2.60;;;2.22;;
42066;SDS011;27734;47.028;28.820;2022-09-24T13:16:01;6.87;;;2.30;;
42066;SDS011;27734;47.028;28.820;2022-09-24T13:18:34;3.57;;;2.60;;
42066;SDS011;27734;47.028;28.820;2022-09-24T13:21:06;4.63;;;2.50;;
42066;SDS011;27734;47.028;28.820;2022-09-24T13:23:47;2.97;;;2.47;;
42066;SDS011;27734;47.028;28.820;2022-09-24T13:26:27;4.77;;;2.80;;
42066;SDS011;27734;47.028;28.820;2022-09-24T13:29:01;3.90;;;2.40;;
42066;SDS011;27734;47.028;28.820;2022-09-24T13:31:36;3.13;;;2.23;;
42066;SDS011;27734;47.028;28.820;2022-09-24T13:34:16;4.13;;;2.30;;
42066;SDS011;27734;47.028;28.820;2022-09-24T13:36:53;3.40;;;2.23;;
42066;SDS011;27734;47.028;28.820;2022-09-24T13:39:30;4.83;;;2.40;;
42066;SDS011;27734;47.028;28.820;2022-09-24T13:42:07;3.60;;;2.20;;
42066;SDS011;27734;47.028;28.820;2022-09-24T13:44:47;6.30;;;2.30;;
42066;SDS011;27734;47.028;28.820;2022-09-24T13:47:24;3.27;;;2.13;;
42066;SDS011;27734;47.028;28.820;2022-09-24T13:50:02;3.17;;;2.77;;
42066;SDS011;27734;47.028;28.820;2022-09-24T13:52:43;3.27;;;2.40;;
42066;SDS011;27734;47.028;28.820;2022-09-24T13:57:49;2.87;;;2.37;;
42066;SDS011;27734;47.028;28.820;2022-09-24T14:00:22;4.20;;;2.43;;
42066;SDS011;27734;47.028;28.820;2022-09-24T14:02:56;3.25;;;2.25;;
42066;SDS011;27734;47.028;28.820;2022-09-24T14:05:32;3.87;;;2.50;;
42066;SDS011;27734;47.028;28.820;2022-09-24T14:08:06;2.57;;;2.23;;
42066;SDS011;27734;47.028;28.820;2022-09-24T14:10:42;3.70;;;2.20;;
42066;SDS011;27734;47.028;28.820;2022-09-24T14:13:18;2.87;;;2.00;;
42066;SDS011;27734;47.028;28.820;2022-09-24T14:15:54;5.13;;;2.70;;
42066;SDS011;27734;47.028;28.820;2022-09-24T14:18:27;5.63;;;2.27;;
42066;SDS011;27734;47.028;28.820;2022-09-24T14:20:59;6.63;;;2.40;;
42066;SDS011;27734;47.028;28.820;2022-09-24T14:23:38;5.30;;;2.93;;
42066;SDS011;27734;47.028;28.820;2022-09-24T14:26:14;5.20;;;2.70;;
42066;SDS011;27734;47.028;28.820;2022-09-24T14:28:50;5.10;;;2.60;;
42066;SDS011;27734;47.028;28.820;2022-09-24T14:31:22;3.70;;;2.23;;
42066;SDS011;27734;47.028;28.820;2022-09-24T14:33:54;3.45;;;2.30;;
42066;SDS011;27734;47.028;28.820;2022-09-24T14:36:26;7.67;;;2.50;;
42066;SDS011;27734;47.028;28.820;2022-09-24T14:38:58;3.33;;;2.30;;
42066;SDS011;27734;47.028;28.820;2022-09-24T14:41:35;3.20;;;2.50;;
42066;SDS011;27734;47.028;28.820;2022-09-24T14:44:07;6.27;;;2.70;;
42066;SDS011;27734;47.028;28.820;2022-09-24T14:46:48;4.40;;;2.70;;
42066;SDS011;27734;47.028;28.820;2022-09-24T14:49:23;4.37;;;2.13;;
42066;SDS011;27734;47.028;28.820;2022-09-24T14:51:56;4.47;;;2.40;;
42066;SDS011;27734;47.028;28.820;2022-09-24T14:54:29;4.35;;;2.40;;
42066;SDS011;27734;47.028;28.820;2022-09-24T14:57:10;3.20;;;2.30;;
42066;SDS011;27734;47.028;28.820;2022-09-24T14:59:51;3.37;;;2.37;;
42066;SDS011;27734;47.028;28.820;2022-09-24T15:02:23;2.87;;;2.23;;
42066;SDS011;27734;47.028;28.820;2022-09-24T15:04:59;5.53;;;2.80;;
42066;SDS011;27734;47.028;28.820;2022-09-24T15:07:34;3.60;;;2.50;;
42066;SDS011;27734;47.028;28.820;2022-09-24T15:10:16;4.60;;;2.60;;
42066;SDS011;27734;47.028;28.820;2022-09-24T15:12:51;6.80;;;2.92;;
42066;SDS011;27734;47.028;28.820;2022-09-24T15:15:27;8.40;;;2.90;;
42066;SDS011;27734;47.028;28.820;2022-09-24T15:17:59;8.20;;;3.07;;
42066;SDS011;27734;47.028;28.820;2022-09-24T15:20:31;4.53;;;2.80;;
42066;SDS011;27734;47.028;28.820;2022-09-24T15:23:02;6.05;;;3.00;;
42066;SDS011;27734;47.028;28.820;2022-09-24T15:25:33;6.07;;;3.53;;
42066;SDS011;27734;47.028;28.820;2022-09-24T15:28:09;6.17;;;3.97;;
42066;SDS011;27734;47.028;28.820;2022-09-24T15:30:42;6.90;;;3.70;;
42066;SDS011;27734;47.028;28.820;2022-09-24T15:33:13;9.60;;;3.50;;
42066;SDS011;27734;47.028;28.820;2022-09-24T15:35:45;5.03;;;3.30;;
42066;SDS011;27734;47.028;28.820;2022-09-24T15:38:17;5.97;;;3.23;;
42066;SDS011;27734;47.028;28.820;2022-09-24T15:40:48;7.93;;;3.63;;